Time;durP1;ratioP1;P1;durP2;ratioP2;P2;SDS_P1;SDS_P2;PMS_P1;PMS_P2;Temp;Humidity;BMP_temperature;BMP_pressure;BME280_temperature;BME280_humidity;BME280_pressure;Samples;Min_cycle;Max_cycle;Signal;HPM_P1;HPM_P2
2022/06/08 00:01:13;;;;;;;;;;;8.90;99.90;;;;;;4999228;28;19968;-82
2022/06/08 00:03:51;;;;;;;;;;;8.80;99.90;;;;;;5008882;28;19924;-85
2022/06/08 00:06:17;;;;;;;;;;;8.80;99.90;;;;;;5032206;28;20011;-82
2022/06/08 00:08:45;;;;;;;;;;;8.80;99.90;;;;;;4999176;28;19921;-84
2022/06/08 00:11:11;;;;;;;;;;;8.80;99.90;;;;;;5053807;28;20274;-83
2022/06/08 00:13:37;;;;;;;;;;;8.70;99.90;;;;;;5009957;28;19918;-83
2022/06/08 00:16:03;;;;;;;;;;;8.70;99.90;;;;;;4999148;28;19929;-84
2022/06/08 00:18:29;;;;;;;;;;;8.70;99.90;;;;;;5010734;28;20370;-81
2022/06/08 00:20:54;;;;;;;;;;;8.70;99.90;;;;;;5011324;28;19917;-81
2022/06/08 00:23:20;;;;;;;;;;;8.60;99.90;;;;;;4982193;28;19917;-83
2022/06/08 00:25:46;;;;;;;;;;;8.60;99.90;;;;;;5008879;28;19921;-82
2022/06/08 00:28:11;;;;;;;;;;;8.60;99.90;;;;;;5062688;28;19926;-81
2022/06/08 00:30:37;;;;;;;;;;;8.60;99.90;;;;;;4998556;28;20339;-85
2022/06/08 00:33:03;;;;;;;;;;;8.60;99.90;;;;;;4982741;28;19931;-83
2022/06/08 00:35:28;;;;;;;;;;;8.60;99.90;;;;;;5068054;28;19921;-85
2022/06/08 00:37:54;;;;;;;;;;;8.50;99.90;;;;;;5022120;28;19922;-80
2022/06/08 00:40:22;;;;;;;;;;;8.60;99.90;;;;;;5006486;28;19908;-80
2022/06/08 00:42:48;;;;;;;;;;;8.50;99.90;;;;;;5050679;28;19916;-82
2022/06/08 00:45:15;;;;;;;;;;;8.50;99.90;;;;;;5018765;28;19921;-83
2022/06/08 00:47:45;;;;;;;;;;;8.70;99.90;;;;;;5005335;28;19921;-81
2022/06/08 00:50:30;;;;;;;;;;;8.50;99.90;;;;;;4997844;28;20367;-82
2022/06/08 00:52:57;;;;;;;;;;;8.50;99.90;;;;;;5005907;28;19950;-82
2022/06/08 00:55:25;;;;;;;;;;;8.70;99.90;;;;;;5033607;28;20290;-86
2022/06/08 00:57:52;;;;;;;;;;;8.40;99.90;;;;;;5032775;28;19924;-83
2022/06/08 01:00:20;;;;;;;;;;;8.40;99.90;;;;;;5026816;28;19968;-85
2022/06/08 01:02:45;;;;;;;;;;;8.40;99.90;;;;;;5011462;28;20016;-83
2022/06/08 01:05:20;;;;;;;;;;;8.40;99.90;;;;;;4982704;28;20322;-82
2022/06/08 01:07:46;;;;;;;;;;;8.40;99.90;;;;;;5013187;28;19924;-84
2022/06/08 01:10:17;;;;;;;;;;;8.40;99.90;;;;;;4997598;28;20545;-83
2022/06/08 01:12:43;;;;;;;;;;;8.40;99.90;;;;;;5009106;28;19921;-82
2022/06/08 01:15:14;;;;;;;;;;;8.40;99.90;;;;;;5016516;28;19917;-83
2022/06/08 01:17:39;;;;;;;;;;;8.40;99.90;;;;;;5014634;28;19921;-84
2022/06/08 01:20:05;;;;;;;;;;;8.40;99.90;;;;;;4981524;28;19928;-80
2022/06/08 01:22:31;;;;;;;;;;;8.40;99.90;;;;;;4997935;28;19917;-85
2022/06/08 01:24:56;;;;;;;;;;;8.40;99.90;;;;;;4992278;28;19921;-81
2022/06/08 01:27:35;;;;;;;;;;;8.40;99.90;;;;;;4998920;28;19921;-83
2022/06/08 01:30:20;;;;;;;;;;;8.30;99.90;;;;;;5015690;28;19929;-82
2022/06/08 01:33:04;;;;;;;;;;;8.40;99.90;;;;;;5034573;28;19917;-80
2022/06/08 01:35:42;;;;;;;;;;;8.30;99.90;;;;;;5006619;28;19965;-82
2022/06/08 01:38:10;;;;;;;;;;;8.40;99.90;;;;;;5021729;28;20011;-82
2022/06/08 01:40:51;;;;;;;;;;;8.30;99.90;;;;;;4997847;28;20355;-82
2022/06/08 01:43:20;;;;;;;;;;;8.30;99.90;;;;;;4998024;28;19917;-84
2022/06/08 01:45:51;;;;;;;;;;;8.30;99.90;;;;;;5008014;28;19926;-86
2022/06/08 01:48:23;;;;;;;;;;;8.30;99.90;;;;;;5028013;28;19921;-82
2022/06/08 01:51:00;;;;;;;;;;;8.30;99.90;;;;;;4994065;28;20376;-79
2022/06/08 01:53:45;;;;;;;;;;;8.30;99.90;;;;;;5000015;28;20329;-84
2022/06/08 01:56:24;;;;;;;;;;;8.30;99.90;;;;;;5031121;28;20366;-85
2022/06/08 01:59:09;;;;;;;;;;;8.20;99.90;;;;;;5022569;28;19925;-82
2022/06/08 02:01:42;;;;;;;;;;;8.30;99.90;;;;;;4998027;28;20290;-81
2022/06/08 02:04:27;;;;;;;;;;;8.30;99.90;;;;;;5013599;28;19917;-84
2022/06/08 02:07:12;;;;;;;;;;;8.30;99.90;;;;;;5028896;28;19921;-83
2022/06/08 02:09:40;;;;;;;;;;;8.40;99.90;;;;;;5031298;28;19928;-86
2022/06/08 02:12:08;;;;;;;;;;;8.40;99.90;;;;;;5032240;28;20294;-84
2022/06/08 02:14:39;;;;;;;;;;;8.40;99.90;;;;;;5030088;28;19924;-83
2022/06/08 02:17:12;;;;;;;;;;;8.40;99.90;;;;;;4996198;28;20342;-83
2022/06/08 02:19:43;;;;;;;;;;;8.40;99.90;;;;;;4998423;28;20012;-84
2022/06/08 02:22:14;;;;;;;;;;;8.40;99.90;;;;;;5017036;28;19917;-85
2022/06/08 02:24:44;;;;;;;;;;;8.40;99.90;;;;;;4998300;28;19943;-83
2022/06/08 02:27:19;;;;;;;;;;;8.40;99.90;;;;;;5032395;28;20192;-84
2022/06/08 02:29:53;;;;;;;;;;;8.40;99.90;;;;;;5019074;28;19927;-85
2022/06/08 02:35:11;;;;;;;;;;;8.40;99.90;;;;;;5016865;28;20388;-86
2022/06/08 02:37:37;;;;;;;;;;;8.40;99.90;;;;;;5005426;28;19924;-84
2022/06/08 02:40:02;;;;;;;;;;;8.40;99.90;;;;;;5020345;28;19921;-84
2022/06/08 02:42:30;;;;;;;;;;;8.40;99.90;;;;;;5017897;28;19924;-84
2022/06/08 02:44:58;;;;;;;;;;;8.40;99.90;;;;;;5015467;28;19921;-82
2022/06/08 02:47:33;;;;;;;;;;;8.40;99.90;;;;;;5021439;28;19928;-87
2022/06/08 02:49:59;;;;;;;;;;;8.50;99.90;;;;;;5033296;28;19940;-86
2022/06/08 02:52:26;;;;;;;;;;;8.60;99.90;;;;;;5033019;28;19921;-83
2022/06/08 02:54:53;;;;;;;;;;;8.60;99.90;;;;;;5039328;28;19962;-85
2022/06/08 02:57:24;;;;;;;;;;;8.60;99.90;;;;;;5019501;28;19965;-83
2022/06/08 02:59:57;;;;;;;;;;;8.60;99.90;;;;;;5018639;28;19956;-85
2022/06/08 03:02:49;;;;;;;;;;;8.60;99.90;;;;;;5070517;28;19928;-84
2022/06/08 03:05:24;;;;;;;;;;;8.60;99.90;;;;;;5003698;28;19921;-82
2022/06/08 03:07:53;;;;;;;;;;;9.40;99.90;;;;;;5003920;28;19923;-84
2022/06/08 03:10:19;;;;;;;;;;;8.60;99.90;;;;;;5012599;28;19917;-83
2022/06/08 03:13:02;;;;;;;;;;;8.60;99.90;;;;;;5020796;28;19967;-84
2022/06/08 03:15:27;;;;;;;;;;;8.60;99.90;;;;;;5014063;28;19966;-84
2022/06/08 03:17:53;;;;;;;;;;;8.60;99.90;;;;;;5005436;28;19959;-84
2022/06/08 03:20:21;;;;;;;;;;;8.60;99.90;;;;;;5015111;28;19924;-82
2022/06/08 03:22:46;;;;;;;;;;;8.60;99.90;;;;;;5034154;28;19917;-80
2022/06/08 03:25:13;;;;;;;;;;;8.60;99.90;;;;;;5043214;28;19935;-83
2022/06/08 03:27:39;;;;;;;;;;;8.50;99.90;;;;;;5030013;28;19964;-83
2022/06/08 03:30:05;;;;;;;;;;;8.60;99.90;;;;;;5023204;28;19970;-85
2022/06/08 03:32:31;;;;;;;;;;;8.60;99.90;;;;;;5024563;28;19923;-83
2022/06/08 03:34:57;;;;;;;;;;;8.60;99.90;;;;;;5021648;28;19917;-84
2022/06/08 03:37:23;;;;;;;;;;;8.70;99.90;;;;;;5041549;28;20285;-85
2022/06/08 03:39:49;;;;;;;;;;;8.60;99.90;;;;;;5032632;28;20401;-81
2022/06/08 03:42:15;;;;;;;;;;;8.80;99.90;;;;;;5003439;28;20000;-85
2022/06/08 03:44:41;;;;;;;;;;;8.80;99.90;;;;;;5032530;28;19964;-86
2022/06/08 03:47:12;;;;;;;;;;;8.90;99.90;;;;;;5035063;28;19971;-87
2022/06/08 03:49:38;;;;;;;;;;;8.90;99.90;;;;;;5039861;28;19917;-85
2022/06/08 03:52:05;;;;;;;;;;;8.90;99.90;;;;;;5027737;28;19932;-83
2022/06/08 03:54:36;;;;;;;;;;;9.00;99.90;;;;;;5019753;28;19920;-83
2022/06/08 03:57:03;;;;;;;;;;;9.00;99.90;;;;;;5061900;28;19971;-83
2022/06/08 03:59:29;;;;;;;;;;;9.10;99.90;;;;;;5006657;28;19983;-83
2022/06/08 04:01:55;;;;;;;;;;;9.20;99.90;;;;;;5002788;28;19924;-83
2022/06/08 04:04:20;;;;;;;;;;;9.30;99.90;;;;;;5002322;28;20358;-87
2022/06/08 04:06:46;;;;;;;;;;;9.30;99.90;;;;;;5014636;28;20026;-83
2022/06/08 04:09:12;;;;;;;;;;;9.40;99.90;;;;;;5035884;28;19952;-86
2022/06/08 04:11:38;;;;;;;;;;;9.50;99.90;;;;;;5030169;28;19996;-85
2022/06/08 04:14:04;;;;;;;;;;;9.60;99.90;;;;;;4973605;28;19921;-82
2022/06/08 04:16:30;;;;;;;;;;;9.60;99.90;;;;;;4987381;28;19917;-84
2022/06/08 04:18:56;;;;;;;;;;;9.80;99.90;;;;;;5030273;28;20324;-84
2022/06/08 04:21:21;;;;;;;;;;;9.80;99.90;;;;;;4987970;28;20432;-86
2022/06/08 04:23:48;;;;;;;;;;;9.90;99.90;;;;;;4986540;28;19917;-84
2022/06/08 04:26:14;;;;;;;;;;;10.00;99.90;;;;;;5019841;28;19921;-81
2022/06/08 04:28:41;;;;;;;;;;;10.00;99.90;;;;;;5079205;28;19916;-84
2022/06/08 04:31:06;;;;;;;;;;;10.10;99.90;;;;;;5022470;28;19917;-85
2022/06/08 04:33:34;;;;;;;;;;;10.20;99.90;;;;;;5020522;28;19927;-83
2022/06/08 04:35:59;;;;;;;;;;;10.30;99.90;;;;;;5019840;28;20322;-84
2022/06/08 04:38:25;;;;;;;;;;;10.40;99.90;;;;;;5067990;28;20111;-82
2022/06/08 04:40:51;;;;;;;;;;;10.50;99.90;;;;;;5013454;28;19917;-85
2022/06/08 04:43:17;;;;;;;;;;;10.60;99.90;;;;;;5034887;28;20381;-84
2022/06/08 04:45:43;;;;;;;;;;;10.80;99.90;;;;;;5019361;28;19926;-86
2022/06/08 04:48:09;;;;;;;;;;;11.00;99.90;;;;;;5025643;28;19922;-83
2022/06/08 04:50:35;;;;;;;;;;;11.20;99.90;;;;;;5004441;28;19925;-84
2022/06/08 04:53:01;;;;;;;;;;;11.30;99.90;;;;;;5007504;28;19917;-84
2022/06/08 04:55:27;;;;;;;;;;;11.40;99.90;;;;;;5020672;28;19921;-82
2022/06/08 04:57:53;;;;;;;;;;;11.60;99.90;;;;;;5005355;28;19920;-83
2022/06/08 05:00:21;;;;;;;;;;;11.70;99.90;;;;;;5065734;28;19917;-87
2022/06/08 05:02:49;;;;;;;;;;;11.90;99.90;;;;;;5017282;28;19917;-85
2022/06/08 05:05:16;;;;;;;;;;;12.00;99.90;;;;;;5035024;28;20015;-83
2022/06/08 05:07:44;;;;;;;;;;;12.20;99.90;;;;;;5004318;28;19927;-83
2022/06/08 05:10:10;;;;;;;;;;;12.50;99.90;;;;;;5063235;28;19924;-83
2022/06/08 05:12:36;;;;;;;;;;;12.70;99.90;;;;;;5039233;28;19916;-85
2022/06/08 05:15:05;;;;;;;;;;;12.90;99.90;;;;;;5042348;28;20083;-84
2022/06/08 05:17:32;;;;;;;;;;;13.00;99.90;;;;;;5024563;28;19956;-83
2022/06/08 05:19:57;;;;;;;;;;;13.00;99.90;;;;;;5016633;28;20277;-85
2022/06/08 05:22:23;;;;;;;;;;;13.10;99.90;;;;;;5019075;28;19956;-83
2022/06/08 05:24:49;;;;;;;;;;;13.10;99.90;;;;;;5005523;28;19921;-84
2022/06/08 05:27:17;;;;;;;;;;;13.10;99.90;;;;;;5037079;28;19916;-84
2022/06/08 05:29:45;;;;;;;;;;;13.10;99.90;;;;;;5006998;28;19924;-81
2022/06/08 05:32:11;;;;;;;;;;;13.10;99.90;;;;;;5044307;28;19928;-83
2022/06/08 05:34:44;;;;;;;;;;;13.10;99.90;;;;;;5039207;28;19921;-82
2022/06/08 05:37:11;;;;;;;;;;;13.10;99.90;;;;;;5027790;28;20001;-82
2022/06/08 05:39:41;;;;;;;;;;;13.20;99.90;;;;;;5042609;28;19917;-82
2022/06/08 05:42:10;;;;;;;;;;;13.20;99.90;;;;;;5039230;28;19916;-83
2022/06/08 05:44:39;;;;;;;;;;;13.20;99.90;;;;;;5024657;28;19939;-81
2022/06/08 05:47:05;;;;;;;;;;;13.30;99.90;;;;;;5044378;28;19917;-82
2022/06/08 05:49:34;;;;;;;;;;;13.50;99.90;;;;;;5061534;28;19924;-80
2022/06/08 05:52:01;;;;;;;;;;;13.40;99.90;;;;;;5014145;28;19917;-84
2022/06/08 05:54:28;;;;;;;;;;;13.40;99.90;;;;;;5033747;28;19916;-85
2022/06/08 05:56:54;;;;;;;;;;;13.50;99.90;;;;;;5017400;28;20389;-84
2022/06/08 05:59:19;;;;;;;;;;;13.60;99.90;;;;;;5004573;28;19917;-85
2022/06/08 06:01:45;;;;;;;;;;;13.70;99.90;;;;;;5018358;28;19921;-85
2022/06/08 06:04:11;;;;;;;;;;;13.80;99.90;;;;;;5013967;28;19916;-84
2022/06/08 06:06:38;;;;;;;;;;;13.80;99.90;;;;;;5016544;28;20346;-85
2022/06/08 06:09:06;;;;;;;;;;;13.90;99.90;;;;;;5032617;28;19924;-83
2022/06/08 06:11:32;;;;;;;;;;;14.00;99.90;;;;;;5050439;28;19917;-83
2022/06/08 06:13:58;;;;;;;;;;;14.10;99.90;;;;;;5017342;28;19956;-84
2022/06/08 06:16:25;;;;;;;;;;;14.20;99.90;;;;;;5032907;28;19948;-83
2022/06/08 06:18:50;;;;;;;;;;;14.40;99.90;;;;;;5025452;28;19917;-84
2022/06/08 06:21:17;;;;;;;;;;;14.60;99.90;;;;;;5001373;28;19924;-84
2022/06/08 06:23:43;;;;;;;;;;;14.80;99.90;;;;;;5024167;28;20007;-84
2022/06/08 06:26:09;;;;;;;;;;;15.10;99.90;;;;;;4988232;28;20015;-84
2022/06/08 06:28:34;;;;;;;;;;;15.10;99.90;;;;;;4999624;28;19921;-82
2022/06/08 06:31:00;;;;;;;;;;;15.20;99.90;;;;;;5000987;28;19917;-84
2022/06/08 06:33:25;;;;;;;;;;;15.30;99.90;;;;;;5018643;28;20362;-83
2022/06/08 06:35:51;;;;;;;;;;;15.30;99.90;;;;;;5035372;28;19921;-85
2022/06/08 06:38:17;;;;;;;;;;;15.40;99.90;;;;;;5016271;28;19916;-83
2022/06/08 06:40:42;;;;;;;;;;;15.40;99.90;;;;;;4992004;28;19920;-83
2022/06/08 06:43:09;;;;;;;;;;;15.40;99.90;;;;;;5012221;28;19924;-84
2022/06/08 06:45:35;;;;;;;;;;;15.50;99.90;;;;;;5027719;28;19920;-84
2022/06/08 06:48:00;;;;;;;;;;;15.50;99.90;;;;;;4988313;28;19928;-85
2022/06/08 06:50:26;;;;;;;;;;;15.60;99.90;;;;;;5002604;28;19948;-86
2022/06/08 06:52:52;;;;;;;;;;;15.70;99.90;;;;;;5046804;28;19920;-83
2022/06/08 06:55:19;;;;;;;;;;;15.90;99.90;;;;;;5032713;28;19971;-82
2022/06/08 06:57:45;;;;;;;;;;;15.90;99.90;;;;;;5031419;28;19916;-82
2022/06/08 07:00:11;;;;;;;;;;;15.90;99.90;;;;;;5058964;28;19923;-85
2022/06/08 07:02:36;;;;;;;;;;;15.90;99.90;;;;;;5041863;28;19917;-80
2022/06/08 07:05:02;;;;;;;;;;;16.00;99.90;;;;;;5004509;28;19931;-84
2022/06/08 07:07:27;;;;;;;;;;;16.10;99.90;;;;;;5017676;28;19939;-81
2022/06/08 07:09:53;;;;;;;;;;;16.30;99.90;;;;;;4986798;28;19917;-86
2022/06/08 07:12:19;;;;;;;;;;;16.40;99.90;;;;;;4998388;28;19917;-84
2022/06/08 07:14:44;;;;;;;;;;;16.50;99.90;;;;;;5027982;28;20050;-85
2022/06/08 07:17:10;;;;;;;;;;;16.60;99.90;;;;;;5049288;28;20034;-81
2022/06/08 07:19:36;;;;;;;;;;;16.70;99.90;;;;;;5061596;28;19917;-85
2022/06/08 07:22:01;;;;;;;;;;;16.60;99.90;;;;;;5016591;28;19917;-84
2022/06/08 07:24:31;;;;;;;;;;;16.60;99.90;;;;;;5011284;28;19916;-81
2022/06/08 07:26:57;;;;;;;;;;;16.60;99.90;;;;;;5002182;28;19916;-85
2022/06/08 07:29:23;;;;;;;;;;;16.60;99.90;;;;;;5015641;28;20004;-83
2022/06/08 07:31:49;;;;;;;;;;;16.70;99.90;;;;;;5038671;28;19948;-85
2022/06/08 07:34:15;;;;;;;;;;;16.90;99.90;;;;;;5035018;28;19959;-81
2022/06/08 07:36:41;;;;;;;;;;;17.20;99.90;;;;;;5004936;28;19932;-85
2022/06/08 07:39:07;;;;;;;;;;;17.40;99.90;;;;;;5035449;28;20267;-83
2022/06/08 07:41:33;;;;;;;;;;;17.60;99.90;;;;;;5032864;28;20433;-84
2022/06/08 07:43:58;;;;;;;;;;;17.90;99.90;;;;;;5011415;28;20008;-85
2022/06/08 07:46:24;;;;;;;;;;;18.10;99.90;;;;;;5017912;28;19925;-85
2022/06/08 07:51:34;;;;;;;;;;;18.40;99.90;;;;;;5016307;28;20318;-84
2022/06/08 07:54:00;;;;;;;;;;;18.50;99.90;;;;;;5031395;28;19959;-82
2022/06/08 07:56:26;;;;;;;;;;;18.60;99.90;;;;;;5004301;28;20313;-81
2022/06/08 07:58:51;;;;;;;;;;;18.70;99.90;;;;;;5054691;28;19917;-85
2022/06/08 08:01:17;;;;;;;;;;;18.70;99.90;;;;;;5051151;28;19917;-83
2022/06/08 08:03:43;;;;;;;;;;;18.70;99.90;;;;;;5010850;28;19921;-82
2022/06/08 08:06:09;;;;;;;;;;;18.70;99.90;;;;;;5014505;28;20027;-85
2022/06/08 08:08:36;;;;;;;;;;;18.60;99.90;;;;;;5050647;28;20254;-82
2022/06/08 08:11:03;;;;;;;;;;;18.50;99.90;;;;;;5039737;28;20330;-83
2022/06/08 08:13:29;;;;;;;;;;;18.60;99.90;;;;;;5051363;28;19944;-84
2022/06/08 08:15:54;;;;;;;;;;;18.60;99.90;;;;;;5018563;28;20358;-85
2022/06/08 08:18:20;;;;;;;;;;;18.60;99.90;;;;;;4997064;28;19924;-84
2022/06/08 08:20:46;;;;;;;;;;;18.80;99.90;;;;;;5014412;28;19917;-82
2022/06/08 08:23:12;;;;;;;;;;;19.00;99.90;;;;;;4998081;28;19997;-85
2022/06/08 08:25:37;;;;;;;;;;;19.20;99.90;;;;;;5018475;28;20011;-86
2022/06/08 08:28:03;;;;;;;;;;;19.30;99.90;;;;;;5018692;28;19916;-83
2022/06/08 08:30:34;;;;;;;;;;;19.20;99.90;;;;;;5057776;28;19921;-81
2022/06/08 08:33:03;;;;;;;;;;;19.40;99.90;;;;;;5023502;28;19937;-84
2022/06/08 08:35:29;;;;;;;;;;;19.60;99.90;;;;;;5000950;28;20001;-82
2022/06/08 08:37:55;;;;;;;;;;;19.60;99.90;;;;;;5028955;28;19921;-83
2022/06/08 08:40:24;;;;;;;;;;;19.60;99.90;;;;;;5020061;28;20000;-81
2022/06/08 08:42:49;;;;;;;;;;;19.70;99.90;;;;;;5036171;28;19917;-82
2022/06/08 08:45:15;;;;;;;;;;;19.80;99.90;;;;;;5012606;28;19971;-84
2022/06/08 08:47:49;;;;;;;;;;;19.80;99.90;;;;;;5014758;28;19932;-84
2022/06/08 08:50:30;;;;;;;;;;;19.90;99.90;;;;;;5002131;28;19959;-83
2022/06/08 08:53:11;;;;;;;;;;;20.00;99.90;;;;;;5017305;28;19917;-85
2022/06/08 08:55:50;;;;;;;;;;;20.10;99.90;;;;;;5018623;28;20022;-82
2022/06/08 08:58:21;;;;;;;;;;;20.20;99.90;;;;;;5031759;28;19917;-80
2022/06/08 09:00:51;;;;;;;;;;;20.30;99.90;;;;;;5050885;28;19924;-84
2022/06/08 09:03:16;;;;;;;;;;;20.50;99.90;;;;;;5002011;28;19917;-84
2022/06/08 09:05:43;;;;;;;;;;;20.70;99.90;;;;;;5012227;28;19966;-82
2022/06/08 09:08:12;;;;;;;;;;;20.70;99.90;;;;;;5002976;28;19917;-80
2022/06/08 09:10:38;;;;;;;;;;;20.70;99.90;;;;;;5059622;28;19917;-84
2022/06/08 09:13:05;;;;;;;;;;;20.90;99.90;;;;;;5022748;28;19923;-82
2022/06/08 09:15:50;;;;;;;;;;;21.20;99.90;;;;;;5016408;28;20015;-84
2022/06/08 09:18:36;;;;;;;;;;;21.50;99.90;;;;;;5017487;28;19917;-83
2022/06/08 09:21:21;;;;;;;;;;;21.60;99.90;;;;;;5018784;28;19916;-81
2022/06/08 09:23:49;;;;;;;;;;;21.60;99.90;;;;;;5019685;28;19917;-83
2022/06/08 09:26:24;;;;;;;;;;;21.80;99.90;;;;;;5070121;28;19920;-83
2022/06/08 09:29:09;;;;;;;;;;;21.90;99.90;;;;;;5006682;28;19916;-80
2022/06/08 09:31:36;;;;;;;;;;;22.10;99.90;;;;;;5016806;28;19917;-84
2022/06/08 09:34:03;;;;;;;;;;;22.20;99.90;;;;;;5017341;28;19923;-82
2022/06/08 09:36:29;;;;;;;;;;;22.20;99.90;;;;;;5016846;28;19920;-81
2022/06/08 09:38:55;;;;;;;;;;;21.90;99.90;;;;;;5000529;28;19923;-83
2022/06/08 09:41:24;;;;;;;;;;;21.50;99.90;;;;;;5003112;28;19960;-82
2022/06/08 09:43:55;;;;;;;;;;;21.20;99.90;;;;;;5025704;28;20004;-80
2022/06/08 09:52:16;;;;;;;;;;;21.50;99.90;;;;;;5040635;28;20048;-83
2022/06/08 09:54:50;;;;;;;;;;;21.80;99.90;;;;;;5039142;28;20339;-81
2022/06/08 09:57:40;;;;;;;;;;;22.10;99.90;;;;;;5027407;28;19917;-81
2022/06/08 10:00:24;;;;;;;;;;;22.30;99.90;;;;;;4987665;28;20409;-81
2022/06/08 10:02:56;;;;;;;;;;;22.10;99.90;;;;;;5046472;28;19924;-82
2022/06/08 10:05:41;;;;;;;;;;;22.20;99.90;;;;;;5010536;28;20351;-83
2022/06/08 10:08:06;;;;;;;;;;;22.30;99.90;;;;;;5022083;28;20386;-81
2022/06/08 10:10:32;;;;;;;;;;;22.20;99.90;;;;;;5028695;28;20003;-83
2022/06/08 10:13:03;;;;;;;;;;;22.30;99.90;;;;;;5062160;28;19921;-83
2022/06/08 10:15:37;;;;;;;;;;;22.20;99.90;;;;;;5006874;28;20012;-81
2022/06/08 10:18:21;;;;;;;;;;;22.10;99.90;;;;;;5005321;28;19925;-85
2022/06/08 10:20:59;;;;;;;;;;;22.00;99.90;;;;;;5016513;28;19916;-82
2022/06/08 10:23:28;;;;;;;;;;;21.80;99.90;;;;;;5037465;28;19920;-84
2022/06/08 10:25:57;;;;;;;;;;;21.60;99.90;;;;;;5021331;28;19921;-82
2022/06/08 10:28:27;;;;;;;;;;;21.30;99.90;;;;;;5072494;28;19920;-82
2022/06/08 10:30:57;;;;;;;;;;;21.20;99.90;;;;;;5012756;28;19928;-82
2022/06/08 10:33:35;;;;;;;;;;;21.10;99.90;;;;;;5020136;28;19921;-81
2022/06/08 10:36:02;;;;;;;;;;;21.00;99.90;;;;;;5014101;28;19923;-81
2022/06/08 10:38:31;;;;;;;;;;;20.80;99.90;;;;;;5022429;28;19923;-82
2022/06/08 10:42:39;;;;;;;;;;;20.70;99.90;;;;;;5027404;28;19916;-83
2022/06/08 10:43:59;;;;;;;;;;;20.60;99.90;;;;;;5021370;28;19964;-80
2022/06/08 10:46:38;;;;;;;;;;;21.00;99.90;;;;;;5023217;28;19971;-81
2022/06/08 10:49:04;;;;;;;;;;;21.40;99.90;;;;;;5043749;28;19921;-81
2022/06/08 10:51:37;;;;;;;;;;;21.70;99.90;;;;;;5036274;28;19924;-80
2022/06/08 10:57:27;;;;;;;;;;;21.70;99.90;;;;;;5029945;28;20007;-81
2022/06/08 11:00:13;;;;;;;;;;;21.50;99.90;;;;;;5047882;28;19956;-82
2022/06/08 11:02:41;;;;;;;;;;;21.50;99.90;;;;;;5015393;28;19921;-82
2022/06/08 11:05:07;;;;;;;;;;;21.70;99.90;;;;;;5053285;28;19921;-82
2022/06/08 11:08:05;;;;;;;;;;;21.90;99.90;;;;;;5017864;28;19924;-80
2022/06/08 11:10:51;;;;;;;;;;;22.20;99.90;;;;;;5028612;28;19917;-84
2022/06/08 11:13:20;;;;;;;;;;;22.40;99.90;;;;;;5029252;28;20397;-80
2022/06/08 11:15:48;;;;;;;;;;;22.60;99.90;;;;;;5030879;28;19928;-80
2022/06/08 11:18:34;;;;;;;;;;;22.50;99.90;;;;;;5033028;28;19921;-81
2022/06/08 11:21:06;;;;;;;;;;;22.40;99.90;;;;;;5015600;28;19917;-83
2022/06/08 11:23:38;;;;;;;;;;;22.30;99.90;;;;;;5048348;28;20039;-82
2022/06/08 11:26:04;;;;;;;;;;;22.20;99.90;;;;;;5017359;28;19929;-81
2022/06/08 11:28:31;;;;;;;;;;;21.90;99.90;;;;;;5003360;28;20302;-82
2022/06/08 11:30:59;;;;;;;;;;;21.60;99.90;;;;;;5042342;28;19928;-81
2022/06/08 11:33:44;;;;;;;;;;;21.20;99.90;;;;;;5016076;28;19932;-82
2022/06/08 11:36:29;;;;;;;;;;;20.90;99.90;;;;;;5026847;28;19924;-83
2022/06/08 11:38:59;;;;;;;;;;;20.50;99.90;;;;;;5030893;28;19966;-81
2022/06/08 11:41:27;;;;;;;;;;;20.10;99.90;;;;;;5023039;28;19968;-82
2022/06/08 11:43:53;;;;;;;;;;;20.00;99.90;;;;;;5050491;28;19943;-80
2022/06/08 11:46:31;;;;;;;;;;;19.80;99.90;;;;;;5042362;28;19921;-80
2022/06/08 11:48:57;;;;;;;;;;;19.60;99.90;;;;;;5061320;28;20286;-80
2022/06/08 11:51:30;;;;;;;;;;;19.50;99.90;;;;;;5060564;28;19920;-81
2022/06/08 11:53:58;;;;;;;;;;;19.40;99.90;;;;;;5031726;28;19924;-83
2022/06/08 11:56:24;;;;;;;;;;;19.00;99.90;;;;;;5030704;28;19952;-84
2022/06/08 11:58:51;;;;;;;;;;;18.60;99.90;;;;;;5020032;28;20000;-82
2022/06/08 12:01:19;;;;;;;;;;;18.20;99.90;;;;;;5034301;28;19917;-83
2022/06/08 12:03:46;;;;;;;;;;;18.00;99.90;;;;;;5004432;28;19917;-81
2022/06/08 12:06:15;;;;;;;;;;;17.90;99.90;;;;;;5023484;28;20035;-81
2022/06/08 12:08:42;;;;;;;;;;;18.00;99.90;;;;;;5029037;28;19921;-82
2022/06/08 12:11:15;;;;;;;;;;;18.00;99.90;;;;;;5001053;28;19923;-82
2022/06/08 12:13:51;;;;;;;;;;;18.10;99.90;;;;;;5051110;28;19917;-79
2022/06/08 12:16:27;;;;;;;;;;;18.20;99.90;;;;;;5039637;28;19917;-85
2022/06/08 12:19:13;;;;;;;;;;;18.30;99.90;;;;;;5036831;28;20383;-85
2022/06/08 12:21:40;;;;;;;;;;;18.40;99.90;;;;;;5003349;28;19917;-84
2022/06/08 12:24:20;;;;;;;;;;;18.30;99.90;;;;;;5029772;28;19916;-82
2022/06/08 12:26:54;;;;;;;;;;;18.20;99.90;;;;;;5032659;28;19980;-83
2022/06/08 12:29:25;;;;;;;;;;;18.20;99.90;;;;;;5020528;28;19917;-82
2022/06/08 12:32:06;;;;;;;;;;;18.10;99.90;;;;;;5017352;28;19996;-85
2022/06/08 12:34:43;;;;;;;;;;;18.20;99.90;;;;;;5021561;28;20008;-81
2022/06/08 12:37:28;;;;;;;;;;;18.70;99.90;;;;;;5051813;28;20374;-84
2022/06/08 12:40:18;;;;;;;;;;;19.30;99.90;;;;;;5049596;28;19925;-83
2022/06/08 12:42:57;;;;;;;;;;;19.80;99.90;;;;;;5020952;28;19924;-83
2022/06/08 12:45:26;;;;;;;;;;;19.90;99.90;;;;;;5076316;28;20026;-84
2022/06/08 12:47:52;;;;;;;;;;;19.70;99.90;;;;;;5015423;28;19921;-83
2022/06/08 12:50:22;;;;;;;;;;;19.40;99.90;;;;;;5010714;28;19966;-85
2022/06/08 12:52:48;;;;;;;;;;;18.90;99.90;;;;;;5036011;28;19928;-81
2022/06/08 12:55:16;;;;;;;;;;;18.50;99.90;;;;;;5020365;28;19917;-81
2022/06/08 12:57:44;;;;;;;;;;;18.20;99.90;;;;;;5055468;28;19917;-83
2022/06/08 13:00:11;;;;;;;;;;;17.90;99.90;;;;;;5020539;28;20262;-83
2022/06/08 13:02:38;;;;;;;;;;;17.60;99.90;;;;;;5019314;28;20362;-82
2022/06/08 13:05:07;;;;;;;;;;;17.50;99.90;;;;;;5018144;28;19921;-83
2022/06/08 13:07:34;;;;;;;;;;;17.40;99.90;;;;;;5017858;28;19971;-84
2022/06/08 13:09:59;;;;;;;;;;;17.30;99.90;;;;;;5028442;28;19921;-83
2022/06/08 13:12:34;;;;;;;;;;;17.20;99.90;;;;;;5028990;28;19928;-82
2022/06/08 13:15:00;;;;;;;;;;;17.10;99.90;;;;;;5061065;28;19955;-81
2022/06/08 13:17:26;;;;;;;;;;;17.10;99.90;;;;;;5053037;28;19921;-83
2022/06/08 13:19:53;;;;;;;;;;;17.10;99.90;;;;;;5049362;28;19992;-85
2022/06/08 13:22:20;;;;;;;;;;;17.00;99.90;;;;;;5049782;28;19920;-82
2022/06/08 13:24:45;;;;;;;;;;;17.00;99.90;;;;;;5003897;28;19927;-84
2022/06/08 13:27:15;;;;;;;;;;;16.90;99.90;;;;;;5031313;28;19999;-84
2022/06/08 13:29:41;;;;;;;;;;;16.90;99.90;;;;;;5014031;28;19964;-84
2022/06/08 13:32:13;;;;;;;;;;;16.80;99.90;;;;;;5021409;28;19917;-80
2022/06/08 13:34:38;;;;;;;;;;;16.80;99.90;;;;;;5055931;28;19924;-84
2022/06/08 13:37:04;;;;;;;;;;;16.80;99.90;;;;;;5008462;28;19917;-83
2022/06/08 13:39:30;;;;;;;;;;;16.80;99.90;;;;;;5023032;28;20051;-84
2022/06/08 13:41:58;;;;;;;;;;;16.80;99.90;;;;;;5032528;28;19917;-83
2022/06/08 13:44:26;;;;;;;;;;;16.80;99.90;;;;;;5051048;28;19917;-83
2022/06/08 13:46:58;;;;;;;;;;;16.80;99.90;;;;;;5050956;28;20005;-82
2022/06/08 13:49:25;;;;;;;;;;;16.70;99.90;;;;;;5007419;28;19921;-79
2022/06/08 13:51:51;;;;;;;;;;;16.70;99.90;;;;;;5035905;28;19917;-83
2022/06/08 13:54:21;;;;;;;;;;;16.70;99.90;;;;;;5021379;28;19991;-82
2022/06/08 13:56:47;;;;;;;;;;;16.70;99.90;;;;;;5049538;28;19968;-80
2022/06/08 13:59:13;;;;;;;;;;;16.80;99.90;;;;;;5032884;28;19971;-81
2022/06/08 14:01:40;;;;;;;;;;;16.80;99.90;;;;;;5019412;28;20388;-84
2022/06/08 14:04:10;;;;;;;;;;;16.80;99.90;;;;;;5055590;28;20255;-79
2022/06/08 14:15:18;;;;;;;;;;;17.10;99.90;;;;;;5016598;28;19923;-79
2022/06/08 14:17:47;;;;;;;;;;;17.20;99.90;;;;;;5040074;28;19924;-80
2022/06/08 14:20:28;;;;;;;;;;;17.30;99.90;;;;;;5007097;28;19921;-84
2022/06/08 14:22:54;;;;;;;;;;;17.40;99.90;;;;;;5049198;28;19917;-83
2022/06/08 14:25:20;;;;;;;;;;;17.50;99.90;;;;;;5049354;28;20016;-78
2022/06/08 14:27:47;;;;;;;;;;;17.60;99.90;;;;;;5049989;28;19955;-84
2022/06/08 14:30:14;;;;;;;;;;;17.60;99.90;;;;;;5032436;28;19954;-81
2022/06/08 14:32:45;;;;;;;;;;;17.70;99.90;;;;;;4999684;28;19923;-84
2022/06/08 14:35:20;;;;;;;;;;;17.70;99.90;;;;;;5016626;28;19917;-80
2022/06/08 14:37:46;;;;;;;;;;;17.80;99.90;;;;;;5001060;28;20382;-85
2022/06/08 14:40:38;;;;;;;;;;;18.00;99.90;;;;;;5013363;28;19971;-80
2022/06/08 14:43:06;;;;;;;;;;;18.10;99.90;;;;;;5015813;28;19928;-83
2022/06/08 14:45:32;;;;;;;;;;;18.20;99.90;;;;;;5043937;28;19929;-80
2022/06/08 14:47:58;;;;;;;;;;;18.20;99.90;;;;;;4992555;28;20018;-82
2022/06/08 14:50:25;;;;;;;;;;;18.20;99.90;;;;;;5000195;28;19923;-81
2022/06/08 14:52:52;;;;;;;;;;;18.20;99.90;;;;;;5020235;28;20050;-84
2022/06/08 14:58:03;;;;;;;;;;;18.30;99.90;;;;;;5014420;28;20398;-83
2022/06/08 15:00:29;;;;;;;;;;;18.10;99.90;;;;;;5017094;28;19928;-82